createdAt,value
2017-08-24T00:00:23.261Z,0
2017-08-24T00:01:23.364Z,0
2017-08-24T00:02:23.564Z,0
2017-08-24T00:03:23.562Z,0
2017-08-24T00:04:23.557Z,0
2017-08-24T00:05:23.555Z,0
2017-08-24T00:06:23.553Z,0
2017-08-24T00:07:23.244Z,0
2017-08-24T00:08:23.542Z,0
2017-08-24T00:09:23.540Z,0
2017-08-24T00:10:22.931Z,0
2017-08-24T00:11:23.233Z,0
2017-08-24T00:12:23.250Z,0
2017-08-24T00:13:23.632Z,0
2017-08-24T00:14:23.630Z,0
2017-08-24T00:15:23.531Z,0
2017-08-24T00:16:23.222Z,0
2017-08-24T00:17:23.222Z,0
2017-08-24T00:18:23.626Z,0
2017-08-24T00:19:23.217Z,0
2017-08-24T00:20:23.209Z,0
2017-08-24T00:21:23.208Z,0
2017-08-24T00:22:23.205Z,0
2017-08-24T00:23:23.207Z,0
2017-08-24T00:24:23.217Z,0
2017-08-24T00:25:23.196Z,0
2017-08-24T00:26:23.193Z,0
2017-08-24T00:27:23.189Z,0
2017-08-24T00:28:23.189Z,0
2017-08-24T00:29:23.184Z,0
2017-08-24T00:30:23.182Z,0
2017-08-24T00:31:22.878Z,0
2017-08-24T00:32:22.912Z,0
2017-08-24T00:33:23.278Z,0
2017-08-24T00:34:23.479Z,0
2017-08-24T00:35:22.873Z,0
2017-08-24T00:36:23.479Z,0
2017-08-24T00:37:22.873Z,0
2017-08-24T00:38:23.475Z,0
2017-08-24T00:39:23.164Z,0
2017-08-24T00:40:22.859Z,0
2017-08-24T00:41:23.161Z,0
2017-08-24T00:42:23.153Z,0
2017-08-24T00:43:23.144Z,0
2017-08-24T00:44:23.150Z,0
2017-08-24T00:45:23.146Z,0
2017-08-24T00:46:23.442Z,0
2017-08-24T00:47:23.466Z,0
2017-08-24T00:48:22.829Z,0
2017-08-24T00:49:22.831Z,0
2017-08-24T00:50:23.132Z,0
2017-08-24T00:51:23.123Z,0
2017-08-24T00:52:23.124Z,0
2017-08-24T00:53:23.530Z,0
2017-08-24T00:54:23.119Z,0
2017-08-24T00:55:23.119Z,0
2017-08-24T00:56:22.819Z,0
2017-08-24T00:57:23.423Z,0
2017-08-24T00:58:23.116Z,0
2017-08-24T00:59:23.424Z,0
2017-08-24T01:00:23.412Z,0
2017-08-24T01:01:23.409Z,0
2017-08-24T01:02:23.410Z,0
2017-08-24T01:03:23.103Z,0
2017-08-24T01:04:23.403Z,0
2017-08-24T01:05:23.397Z,0
2017-08-24T01:06:23.191Z,0
2017-08-24T01:07:23.395Z,0
2017-08-24T01:08:23.390Z,0
2017-08-24T01:09:23.389Z,0
2017-08-24T01:10:23.386Z,0
2017-08-24T01:11:23.479Z,0
2017-08-24T01:12:23.377Z,0
2017-08-24T01:13:23.073Z,0
2017-08-24T01:14:23.471Z,0
2017-08-24T01:15:23.372Z,0
2017-08-24T01:16:23.372Z,0
2017-08-24T01:17:23.365Z,0
2017-08-24T01:18:23.360Z,0
2017-08-24T01:19:23.461Z,0
2017-08-24T01:20:23.358Z,0
2017-08-24T01:21:23.054Z,0
2017-08-24T01:22:23.055Z,0
2017-08-24T01:23:23.352Z,0
2017-08-24T01:24:23.350Z,0
2017-08-24T01:25:22.742Z,0
2017-08-24T01:26:23.036Z,0
2017-08-24T01:27:23.035Z,0
2017-08-24T01:28:23.035Z,0
2017-08-24T01:29:23.437Z,0
2017-08-24T01:30:23.025Z,0
2017-08-24T01:31:23.326Z,0
2017-08-24T01:32:23.024Z,0
2017-08-24T01:33:23.321Z,0
2017-08-24T01:34:23.324Z,0
2017-08-24T01:35:23.320Z,0
2017-08-24T01:36:23.112Z,0
2017-08-24T01:37:23.320Z,0
2017-08-24T01:38:23.021Z,0
2017-08-24T01:39:23.310Z,0
2017-08-24T01:40:23.308Z,0
2017-08-24T01:41:23.307Z,0
2017-08-24T01:42:22.995Z,0
2017-08-24T01:43:22.993Z,0
2017-08-24T01:44:23.294Z,0
2017-08-24T01:45:23.389Z,0
2017-08-24T01:46:23.024Z,0
2017-08-24T01:47:23.287Z,0
2017-08-24T01:48:23.281Z,0
2017-08-24T01:49:23.280Z,0
2017-08-24T01:50:23.274Z,0
2017-08-24T01:51:22.975Z,0
2017-08-24T01:52:22.973Z,0
2017-08-24T01:53:23.272Z,0
2017-08-24T01:54:23.378Z,0
2017-08-24T01:55:23.263Z,0
2017-08-24T01:56:23.289Z,0
2017-08-24T01:57:23.270Z,0
2017-08-24T01:58:22.649Z,0
2017-08-24T01:59:23.055Z,0
2017-08-24T02:00:23.250Z,0
2017-08-24T02:01:23.246Z,0
2017-08-24T02:02:23.241Z,0
2017-08-24T02:03:23.244Z,0
2017-08-24T02:04:23.238Z,0
2017-08-24T02:05:22.931Z,0
2017-08-24T02:06:22.929Z,0
2017-08-24T02:07:22.632Z,0
2017-08-24T02:08:22.926Z,0
2017-08-24T02:09:23.223Z,0
2017-08-24T02:10:22.915Z,0
2017-08-24T02:11:22.919Z,0
2017-08-24T02:12:23.246Z,0
2017-08-24T02:13:23.212Z,0
2017-08-24T02:14:23.212Z,0
2017-08-24T02:15:23.216Z,0
2017-08-24T02:16:22.901Z,0
2017-08-24T02:17:23.207Z,0
2017-08-24T02:18:23.200Z,0
2017-08-24T02:19:23.306Z,0
2017-08-24T02:20:23.195Z,0
2017-08-24T02:21:22.886Z,0
2017-08-24T02:22:23.192Z,0
2017-08-24T02:23:23.182Z,0
2017-08-24T02:24:23.180Z,0
2017-08-24T02:25:23.178Z,0
2017-08-24T02:26:23.178Z,0
2017-08-24T02:27:23.178Z,0
2017-08-24T02:28:23.175Z,0
2017-08-24T02:29:23.192Z,0
2017-08-24T02:30:22.862Z,0
2017-08-24T02:31:22.860Z,0
2017-08-24T02:32:23.162Z,0
2017-08-24T02:33:23.164Z,0
2017-08-24T02:34:23.163Z,0
2017-08-24T02:35:23.156Z,0
2017-08-24T02:36:23.153Z,0
2017-08-24T02:37:23.246Z,0
2017-08-24T02:38:23.152Z,0
2017-08-24T02:39:22.948Z,0
2017-08-24T02:40:23.140Z,0
2017-08-24T02:41:22.538Z,0
2017-08-24T02:42:23.137Z,0
2017-08-24T02:43:22.832Z,0
2017-08-24T02:44:23.129Z,0
2017-08-24T02:45:23.127Z,0
2017-08-24T02:46:22.817Z,0
2017-08-24T02:47:23.130Z,0
2017-08-24T02:48:22.817Z,0
2017-08-24T02:49:23.230Z,0
2017-08-24T02:50:23.116Z,0
2017-08-24T02:51:23.111Z,0
2017-08-24T02:52:23.105Z,0
2017-08-24T02:53:23.103Z,0
2017-08-24T02:54:23.146Z,0
2017-08-24T02:55:23.201Z,0
2017-08-24T02:56:23.200Z,0
2017-08-24T02:57:23.096Z,0
2017-08-24T02:58:22.787Z,0
2017-08-24T02:59:22.785Z,0
2017-08-24T03:00:23.086Z,0
2017-08-24T03:01:23.086Z,0
2017-08-24T03:02:22.773Z,0
2017-08-24T03:03:23.077Z,0
2017-08-24T03:04:23.078Z,0
2017-08-24T03:05:23.069Z,0
2017-08-24T03:06:23.069Z,0
2017-08-24T03:07:23.168Z,0
2017-08-24T03:08:22.756Z,0
2017-08-24T03:09:23.155Z,0
2017-08-24T03:10:23.057Z,0
2017-08-24T03:11:23.058Z,0
2017-08-24T03:12:23.053Z,0
2017-08-24T03:13:23.050Z,0
2017-08-24T03:14:22.433Z,0
2017-08-24T03:15:22.733Z,0
2017-08-24T03:16:23.044Z,0
2017-08-24T03:17:23.139Z,0
2017-08-24T03:18:22.425Z,0
2017-08-24T03:19:23.130Z,0
2017-08-24T03:20:22.727Z,0
2017-08-24T03:21:23.123Z,0
2017-08-24T03:22:23.026Z,0
2017-08-24T03:23:23.023Z,0
2017-08-24T03:24:23.022Z,0
2017-08-24T03:25:23.019Z,0
2017-08-24T03:26:22.711Z,0
2017-08-24T03:27:23.018Z,0
2017-08-24T03:28:23.007Z,0
2017-08-24T03:29:23.002Z,0
2017-08-24T03:30:23.013Z,0
2017-08-24T03:31:22.995Z,0
2017-08-24T03:32:22.691Z,0
2017-08-24T03:33:22.991Z,0
2017-08-24T03:34:22.997Z,0
2017-08-24T03:35:22.985Z,0
2017-08-24T03:36:23.081Z,0
2017-08-24T03:37:22.979Z,0
2017-08-24T03:38:22.988Z,0
2017-08-24T03:39:22.976Z,0
2017-08-24T03:40:22.971Z,0
2017-08-24T03:41:22.764Z,0
2017-08-24T03:42:22.973Z,0
2017-08-24T03:43:23.066Z,0
2017-08-24T03:44:22.350Z,0
2017-08-24T03:45:22.959Z,0
2017-08-24T03:46:22.954Z,0
2017-08-24T03:47:22.648Z,0
2017-08-24T03:48:23.049Z,0
2017-08-24T03:49:22.945Z,0
2017-08-24T03:50:22.947Z,0
2017-08-24T03:51:22.949Z,0
2017-08-24T03:52:22.937Z,0
2017-08-24T03:53:22.938Z,0
2017-08-24T03:54:22.639Z,0
2017-08-24T03:55:22.928Z,0
2017-08-24T03:56:22.929Z,0
2017-08-24T03:57:22.620Z,0
2017-08-24T03:58:22.924Z,0
2017-08-24T03:59:22.914Z,0
2017-08-24T04:00:22.926Z,0
2017-08-24T04:01:22.912Z,0
2017-08-24T04:02:22.908Z,0
2017-08-24T04:03:23.006Z,0
2017-08-24T04:04:22.902Z,0
2017-08-24T04:05:22.898Z,4
2017-08-24T04:06:22.899Z,4
2017-08-24T04:07:22.894Z,0
2017-08-24T04:08:22.895Z,4
2017-08-24T04:09:22.992Z,4
2017-08-24T04:10:22.575Z,4
2017-08-24T04:11:22.989Z,8
2017-08-24T04:12:22.881Z,8
2017-08-24T04:13:22.880Z,8
2017-08-24T04:14:22.877Z,12
2017-08-24T04:15:22.877Z,12
2017-08-24T04:16:22.569Z,12
2017-08-24T04:17:22.864Z,20
2017-08-24T04:18:22.869Z,24
2017-08-24T04:19:22.862Z,28
2017-08-24T04:20:22.851Z,36
2017-08-24T04:21:22.853Z,40
2017-08-24T04:22:22.850Z,40
2017-08-24T04:23:22.541Z,44
2017-08-24T04:24:22.541Z,48
2017-08-24T04:25:22.843Z,52
2017-08-24T04:26:22.842Z,56
2017-08-24T04:27:22.531Z,60
2017-08-24T04:28:22.529Z,64
2017-08-24T04:29:22.934Z,68
2017-08-24T04:30:22.830Z,72
2017-08-24T04:31:22.523Z,80
2017-08-24T04:32:22.818Z,92
2017-08-24T04:33:22.823Z,108
2017-08-24T04:34:22.916Z,124
2017-08-24T04:35:22.809Z,144
2017-08-24T04:36:22.812Z,160
2017-08-24T04:37:22.844Z,176
2017-08-24T04:38:22.815Z,196
2017-08-24T04:39:22.503Z,216
2017-08-24T04:40:22.806Z,236
2017-08-24T04:41:22.794Z,256
2017-08-24T04:42:22.795Z,280
2017-08-24T04:43:22.790Z,300
2017-08-24T04:44:22.512Z,324
2017-08-24T04:45:22.779Z,344
2017-08-24T04:46:22.674Z,368
2017-08-24T04:47:22.778Z,392
2017-08-24T04:48:22.779Z,416
2017-08-24T04:49:22.771Z,444
2017-08-24T04:50:22.768Z,468
2017-08-24T04:51:22.467Z,500
2017-08-24T04:52:22.564Z,532
2017-08-24T04:53:22.761Z,568
2017-08-24T04:54:22.858Z,604
2017-08-24T04:55:22.756Z,636
2017-08-24T04:56:22.754Z,672
2017-08-24T04:57:22.847Z,708
2017-08-24T04:58:22.744Z,744
2017-08-24T04:59:22.441Z,784
2017-08-24T05:00:22.535Z,816
2017-08-24T05:01:22.748Z,840
2017-08-24T05:02:22.464Z,868
2017-08-24T05:03:22.426Z,916
2017-08-24T05:04:22.746Z,984
2017-08-24T05:05:22.120Z,1060
2017-08-24T05:06:22.763Z,1132
2017-08-24T05:07:22.720Z,1180
2017-08-24T05:08:22.715Z,1220
2017-08-24T05:09:22.816Z,1252
2017-08-24T05:10:22.715Z,1220
2017-08-24T05:11:22.713Z,1136
2017-08-24T05:12:22.399Z,1060
2017-08-24T05:13:22.399Z,1072
2017-08-24T05:14:22.710Z,1152
2017-08-24T05:15:22.699Z,1280
2017-08-24T05:16:22.698Z,1452
2017-08-24T05:17:22.706Z,1628
2017-08-24T05:18:22.790Z,1748
2017-08-24T05:19:22.380Z,1896
2017-08-24T05:20:22.694Z,2008
2017-08-24T05:21:22.379Z,2208
2017-08-24T05:22:22.078Z,2480
2017-08-24T05:23:22.685Z,2624
2017-08-24T05:24:22.775Z,2700
2017-08-24T05:25:22.690Z,2756
2017-08-24T05:26:22.374Z,2760
2017-08-24T05:27:22.670Z,2912
2017-08-24T05:28:22.766Z,3068
2017-08-24T05:29:22.373Z,3176
2017-08-24T05:30:22.352Z,3268
2017-08-24T05:31:22.653Z,3388
2017-08-24T05:32:22.654Z,3516
2017-08-24T05:33:22.650Z,3620
2017-08-24T05:34:22.650Z,3704
2017-08-24T05:35:22.646Z,3812
2017-08-24T05:36:22.649Z,3912
2017-08-24T05:37:22.642Z,3988
2017-08-24T05:38:22.641Z,4080
2017-08-24T05:39:22.642Z,4192
2017-08-24T05:40:22.634Z,4328
2017-08-24T05:41:22.633Z,4532
2017-08-24T05:42:22.631Z,4776
2017-08-24T05:43:22.326Z,4936
2017-08-24T05:44:22.633Z,5256
2017-08-24T05:45:22.867Z,5332
2017-08-24T05:46:22.313Z,5280
2017-08-24T05:47:22.317Z,4968
2017-08-24T05:48:22.727Z,5244
2017-08-24T05:49:22.311Z,5504
2017-08-24T05:50:22.621Z,5588
2017-08-24T05:51:22.613Z,5668
2017-08-24T05:52:22.608Z,5836
2017-08-24T05:53:22.307Z,6160
2017-08-24T05:54:22.606Z,6576
2017-08-24T05:55:22.603Z,7212
2017-08-24T05:56:22.401Z,7108
2017-08-24T05:57:22.000Z,8832
2017-08-24T05:58:22.603Z,9916
2017-08-24T05:59:22.605Z,10084
2017-08-24T06:00:22.293Z,9708
2017-08-24T06:01:22.597Z,9596
2017-08-24T06:02:22.596Z,9796
2017-08-24T06:03:22.597Z,10660
2017-08-24T06:04:22.392Z,10812
2017-08-24T06:05:22.591Z,10932
2017-08-24T06:06:22.594Z,11224
2017-08-24T06:07:22.594Z,11332
2017-08-24T06:08:22.590Z,11368
2017-08-24T06:09:22.597Z,11608
2017-08-24T06:10:22.691Z,12008
2017-08-24T06:11:22.694Z,12360
2017-08-24T06:12:22.284Z,12412
2017-08-24T06:13:22.278Z,12412
2017-08-24T06:14:22.595Z,13008
2017-08-24T06:15:22.684Z,13208
2017-08-24T06:16:22.382Z,13988
2017-08-24T06:17:21.977Z,13984
2017-08-24T06:18:22.280Z,13700
2017-08-24T06:19:21.975Z,13696
2017-08-24T06:20:21.993Z,13884
2017-08-24T06:21:22.779Z,14656
2017-08-24T06:22:22.583Z,15072
2017-08-24T06:23:22.286Z,14368
2017-08-24T06:24:22.587Z,15328
2017-08-24T06:25:21.975Z,16224
2017-08-24T06:26:22.276Z,16064
2017-08-24T06:27:22.275Z,16352
2017-08-24T06:28:22.586Z,16192
2017-08-24T06:29:22.605Z,16448
2017-08-24T06:30:21.998Z,16864
2017-08-24T06:31:22.609Z,16768
2017-08-24T06:32:22.606Z,17504
2017-08-24T06:33:22.605Z,17280
2017-08-24T06:34:22.598Z,16960
2017-08-24T06:35:22.604Z,16800
2017-08-24T06:36:22.609Z,16992
2017-08-24T06:37:22.601Z,17696
2017-08-24T06:38:22.603Z,17184
2017-08-24T06:39:22.607Z,17728
2017-08-24T06:40:22.703Z,17760
2017-08-24T06:41:22.600Z,18624
2017-08-24T06:42:22.707Z,18944
2017-08-24T06:43:22.608Z,18784
2017-08-24T06:44:22.602Z,18944
2017-08-24T06:45:22.602Z,18688
2017-08-24T06:46:22.614Z,18304
2017-08-24T06:47:22.705Z,19296
2017-08-24T06:48:22.606Z,20160
2017-08-24T06:49:22.607Z,19680
2017-08-24T06:50:22.604Z,18400
2017-08-24T06:51:22.614Z,18784
2017-08-24T06:52:22.616Z,18464
2017-08-24T06:53:22.613Z,18240
2017-08-24T06:54:22.709Z,18336
2017-08-24T06:55:22.603Z,18528
2017-08-24T06:56:22.606Z,18048
2017-08-24T06:57:22.603Z,17600
2017-08-24T06:58:22.603Z,18016
2017-08-24T06:59:22.310Z,18176
2017-08-24T07:00:22.299Z,17344
2017-08-24T07:01:22.614Z,13688
2017-08-24T07:02:22.293Z,9260
2017-08-24T07:03:22.305Z,8148
2017-08-24T07:04:22.601Z,8088
2017-08-24T07:05:22.601Z,8004
2017-08-24T07:06:22.605Z,7932
2017-08-24T07:07:22.714Z,7844
2017-08-24T07:08:22.607Z,7812
2017-08-24T07:09:22.605Z,7740
2017-08-24T07:10:22.295Z,7644
2017-08-24T07:11:22.299Z,7536
2017-08-24T07:12:22.612Z,7428
2017-08-24T07:13:22.605Z,7328
2017-08-24T07:14:22.613Z,7220
2017-08-24T07:15:22.603Z,7124
2017-08-24T07:16:22.610Z,7044
2017-08-24T07:17:22.705Z,6908
2017-08-24T07:18:22.609Z,6808
2017-08-24T07:19:22.609Z,6720
2017-08-24T07:20:22.601Z,6620
2017-08-24T07:21:22.397Z,6500
2017-08-24T07:22:22.400Z,6396
2017-08-24T07:23:22.610Z,6296
2017-08-24T07:24:22.609Z,6196
2017-08-24T07:25:22.710Z,6084
2017-08-24T07:26:22.714Z,5992
2017-08-24T07:27:22.625Z,5908
2017-08-24T07:28:22.701Z,5788
2017-08-24T07:29:22.294Z,5664
2017-08-24T07:30:22.297Z,5540
2017-08-24T07:31:22.607Z,5468
2017-08-24T07:32:22.301Z,5360
2017-08-24T07:33:22.608Z,5272
2017-08-24T07:34:22.608Z,5188
2017-08-24T07:35:22.604Z,5172
2017-08-24T07:36:22.607Z,5092
2017-08-24T07:37:22.603Z,5068
2017-08-24T07:38:22.601Z,5104
2017-08-24T07:39:22.704Z,5096
2017-08-24T07:40:22.604Z,5108
2017-08-24T07:41:22.298Z,5148
2017-08-24T07:42:22.703Z,5120
2017-08-24T07:43:22.604Z,5108
2017-08-24T07:44:22.606Z,5160
2017-08-24T07:45:22.597Z,5240
2017-08-24T07:46:22.596Z,5368
2017-08-24T07:47:22.800Z,5444
2017-08-24T07:48:22.602Z,5636
2017-08-24T07:49:22.605Z,5588
2017-08-24T07:50:22.603Z,4712
2017-08-24T07:51:22.603Z,4296
2017-08-24T07:52:22.602Z,5412
2017-08-24T07:53:22.698Z,5712
2017-08-24T07:54:22.603Z,4548
2017-08-24T07:55:22.286Z,4560
2017-08-24T07:56:22.696Z,3936
2017-08-24T07:57:22.310Z,3588
2017-08-24T07:58:22.603Z,3508
2017-08-24T07:59:22.595Z,3324
2017-08-24T08:00:22.594Z,3816
2017-08-24T08:01:22.694Z,3420
2017-08-24T08:02:22.591Z,4120
2017-08-24T08:03:22.287Z,3924
2017-08-24T08:04:22.280Z,3616
2017-08-24T08:05:22.587Z,3528
2017-08-24T08:06:22.592Z,3520
2017-08-24T08:07:22.286Z,3560
2017-08-24T08:08:22.591Z,3160
2017-08-24T08:09:22.586Z,3208
2017-08-24T08:10:22.686Z,3028
2017-08-24T08:11:22.585Z,3112
2017-08-24T08:12:22.587Z,3020
2017-08-24T08:13:22.582Z,2932
2017-08-24T08:14:22.580Z,2832
2017-08-24T08:15:22.683Z,2752
2017-08-24T08:16:22.582Z,2700
2017-08-24T08:17:22.586Z,2652
2017-08-24T08:18:22.581Z,2612
2017-08-24T08:19:22.583Z,2572
2017-08-24T08:20:22.573Z,2540
2017-08-24T08:21:22.583Z,2512
2017-08-24T08:22:22.579Z,2500
2017-08-24T08:23:22.577Z,2476
2017-08-24T08:24:22.680Z,2452
2017-08-24T08:25:21.952Z,2432
2017-08-24T08:26:22.573Z,2420
2017-08-24T08:27:22.674Z,2400
2017-08-24T08:28:22.571Z,2384
2017-08-24T08:29:22.565Z,2372
2017-08-24T08:30:22.664Z,2400
2017-08-24T08:31:22.562Z,2484
2017-08-24T08:32:22.568Z,2612
2017-08-24T08:33:22.562Z,2740
2017-08-24T08:34:22.658Z,2684
2017-08-24T08:35:22.562Z,2572
2017-08-24T08:36:22.256Z,2504
2017-08-24T08:37:22.248Z,2492
2017-08-24T08:38:22.583Z,2572
2017-08-24T08:39:22.555Z,2744
2017-08-24T08:40:22.555Z,2724
2017-08-24T08:41:22.556Z,2660
2017-08-24T08:42:21.945Z,2796
2017-08-24T08:43:22.647Z,2964
2017-08-24T08:44:22.572Z,3060
2017-08-24T08:45:22.330Z,3044
2017-08-24T08:46:22.232Z,3376
2017-08-24T08:47:22.226Z,3412
2017-08-24T08:48:21.912Z,3336
2017-08-24T08:49:22.229Z,3256
2017-08-24T08:50:22.539Z,3252
2017-08-24T08:51:22.221Z,3404
2017-08-24T08:52:22.221Z,3216
2017-08-24T08:53:21.910Z,3108
2017-08-24T08:54:22.532Z,3008
2017-08-24T08:55:21.901Z,3056
2017-08-24T08:56:21.905Z,3128
2017-08-24T08:57:22.216Z,3196
2017-08-24T08:58:22.535Z,3344
2017-08-24T08:59:22.222Z,3588
2017-08-24T09:00:22.216Z,3384
2017-08-24T09:01:21.897Z,3308
2017-08-24T09:02:21.893Z,3588
2017-08-24T09:03:22.524Z,3584
2017-08-24T09:04:22.622Z,3580
2017-08-24T09:05:22.205Z,3440
2017-08-24T09:06:21.889Z,3376
2017-08-24T09:07:21.989Z,3364
2017-08-24T09:08:22.512Z,3384
2017-08-24T09:09:21.576Z,3428
2017-08-24T09:10:21.886Z,3176
2017-08-24T09:11:22.510Z,3212
2017-08-24T09:12:22.513Z,3220
2017-08-24T09:13:22.508Z,3096
2017-08-24T09:14:22.512Z,2916
2017-08-24T09:15:22.513Z,2768
2017-08-24T09:16:22.193Z,2600
2017-08-24T09:17:22.508Z,2480
2017-08-24T09:18:22.516Z,2356
2017-08-24T09:19:21.559Z,2320
2017-08-24T09:20:22.512Z,2296
2017-08-24T09:21:21.973Z,2252
2017-08-24T09:22:21.557Z,2216
2017-08-24T09:23:21.556Z,2192
2017-08-24T09:24:22.185Z,2180
2017-08-24T09:25:21.869Z,2160
2017-08-24T09:26:21.554Z,2152
2017-08-24T09:27:22.495Z,2116
2017-08-24T09:28:22.590Z,2084
2017-08-24T09:29:22.179Z,2072
2017-08-24T09:30:22.489Z,2092
2017-08-24T09:31:22.488Z,2104
2017-08-24T09:32:21.862Z,2124
2017-08-24T09:33:22.485Z,2120
2017-08-24T09:34:21.857Z,2096
2017-08-24T09:35:21.543Z,2048
2017-08-24T09:36:22.170Z,1976
2017-08-24T09:37:22.166Z,1900
2017-08-24T09:38:21.853Z,1848
2017-08-24T09:39:22.481Z,1816
2017-08-24T09:40:22.479Z,1792
2017-08-24T09:41:22.584Z,1768
2017-08-24T09:42:22.161Z,1752
2017-08-24T09:43:22.476Z,1724
2017-08-24T09:44:21.843Z,1700
2017-08-24T09:45:22.476Z,1696
2017-08-24T09:46:22.162Z,1684
2017-08-24T09:47:22.473Z,1664
2017-08-24T09:48:22.265Z,1668
2017-08-24T09:49:21.839Z,1672
2017-08-24T09:50:22.154Z,1676
2017-08-24T09:51:22.461Z,1676
2017-08-24T09:52:21.834Z,1676
2017-08-24T09:53:22.153Z,1672
2017-08-24T09:54:22.462Z,1664
2017-08-24T09:55:22.141Z,1656
2017-08-24T09:56:21.830Z,1648
2017-08-24T09:57:21.830Z,1636
2017-08-24T09:58:22.142Z,1652
2017-08-24T09:59:22.138Z,1640
2017-08-24T10:00:22.140Z,1648
2017-08-24T10:01:22.140Z,1608
2017-08-24T10:02:22.138Z,1656
2017-08-24T10:03:22.137Z,1648
2017-08-24T10:04:22.137Z,1652
2017-08-24T10:05:22.227Z,1628
2017-08-24T10:06:22.546Z,1604
2017-08-24T10:07:21.822Z,1600
2017-08-24T10:08:22.125Z,1612
2017-08-24T10:09:21.809Z,1624
2017-08-24T10:10:21.914Z,1636
2017-08-24T10:11:22.441Z,1640
2017-08-24T10:12:21.802Z,1624
2017-08-24T10:13:22.116Z,1600
2017-08-24T10:14:21.804Z,1580
2017-08-24T10:15:21.489Z,1564
2017-08-24T10:16:21.803Z,1568
2017-08-24T10:17:22.115Z,1584
2017-08-24T10:18:22.113Z,1596
2017-08-24T10:19:22.120Z,1600
2017-08-24T10:20:22.430Z,1548
2017-08-24T10:21:22.110Z,1572
2017-08-24T10:22:22.534Z,1560
2017-08-24T10:23:22.108Z,1568
2017-08-24T10:24:22.102Z,1572
2017-08-24T10:25:21.815Z,1564
2017-08-24T10:26:22.414Z,1552
2017-08-24T10:27:21.788Z,1548
2017-08-24T10:28:21.891Z,1520
2017-08-24T10:29:22.264Z,1508
2017-08-24T10:30:22.646Z,1496
2017-08-24T10:31:22.602Z,1492
2017-08-24T10:32:22.097Z,1492
2017-08-24T10:33:22.092Z,1492
2017-08-24T10:34:22.089Z,1492
2017-08-24T10:35:22.403Z,1488
2017-08-24T10:36:22.425Z,1476
2017-08-24T10:37:22.086Z,1468
2017-08-24T10:38:22.089Z,1468
2017-08-24T10:39:22.181Z,1464
2017-08-24T10:40:22.406Z,1460
2017-08-24T10:41:21.454Z,1448
2017-08-24T10:42:22.085Z,1444
2017-08-24T10:43:22.079Z,1436
2017-08-24T10:44:21.452Z,1432
2017-08-24T10:45:21.768Z,1432
2017-08-24T10:46:22.085Z,1424
2017-08-24T10:47:22.071Z,1416
2017-08-24T10:48:22.074Z,1420
2017-08-24T10:49:22.197Z,1448
2017-08-24T10:50:21.757Z,1484
2017-08-24T10:51:21.751Z,1576
2017-08-24T10:52:22.167Z,1680
2017-08-24T10:53:22.064Z,1800
2017-08-24T10:54:22.400Z,1876
2017-08-24T10:55:21.748Z,2000
2017-08-24T10:56:21.746Z,2088
2017-08-24T10:57:22.374Z,2092
2017-08-24T10:58:22.057Z,2100
2017-08-24T10:59:22.055Z,2132
2017-08-24T11:00:21.838Z,2176
2017-08-24T11:01:22.142Z,2136
2017-08-24T11:02:22.056Z,2136
2017-08-24T11:03:22.052Z,2180
2017-08-24T11:04:22.051Z,2220
2017-08-24T11:05:21.420Z,2228
2017-08-24T11:06:21.734Z,2216
2017-08-24T11:07:22.364Z,2164
2017-08-24T11:08:22.366Z,2104
2017-08-24T11:09:21.830Z,2036
2017-08-24T11:10:21.727Z,1956
2017-08-24T11:11:21.827Z,1852
2017-08-24T11:12:21.729Z,1744
2017-08-24T11:13:22.046Z,1652
2017-08-24T11:14:21.727Z,1572
2017-08-24T11:15:22.035Z,1496
2017-08-24T11:16:21.408Z,1448
2017-08-24T11:17:22.486Z,1408
2017-08-24T11:18:22.373Z,1384
2017-08-24T11:19:21.720Z,1364
2017-08-24T11:20:21.716Z,1348
2017-08-24T11:21:21.815Z,1328
2017-08-24T11:22:22.030Z,1308
2017-08-24T11:23:22.124Z,1288
2017-08-24T11:24:21.712Z,1284
2017-08-24T11:25:21.712Z,1268
2017-08-24T11:26:21.715Z,1264
2017-08-24T11:27:21.709Z,1256
2017-08-24T11:28:21.390Z,1248
2017-08-24T11:29:22.016Z,1240
2017-08-24T11:30:21.705Z,1236
2017-08-24T11:31:21.713Z,1232
2017-08-24T11:32:22.329Z,1236
2017-08-24T11:33:21.699Z,1252
2017-08-24T11:34:22.324Z,1272
2017-08-24T11:35:22.013Z,1284
2017-08-24T11:36:21.696Z,1256
2017-08-24T11:37:21.699Z,1228
2017-08-24T11:38:22.004Z,1216
2017-08-24T11:39:21.689Z,1212
2017-08-24T11:40:22.005Z,1212
2017-08-24T11:41:22.207Z,1216
2017-08-24T11:42:21.688Z,1200
2017-08-24T11:43:21.689Z,1188
2017-08-24T11:44:21.369Z,1172
2017-08-24T11:45:22.204Z,1164
2017-08-24T11:46:22.091Z,1160
2017-08-24T11:47:21.680Z,1152
2017-08-24T11:48:22.424Z,1148
2017-08-24T11:49:21.988Z,1148
2017-08-24T11:50:22.091Z,1140
2017-08-24T11:51:21.986Z,1140
2017-08-24T11:52:22.090Z,1140
2017-08-24T11:53:21.989Z,1136
2017-08-24T11:54:21.675Z,1128
2017-08-24T11:55:21.668Z,1124
2017-08-24T11:56:21.981Z,1120
2017-08-24T11:57:22.021Z,1124
2017-08-24T11:58:21.349Z,1116
2017-08-24T11:59:21.981Z,1116
2017-08-24T12:00:21.973Z,1112
2017-08-24T12:01:21.657Z,1136
2017-08-24T12:02:21.657Z,1104
2017-08-24T12:03:21.660Z,1100
2017-08-24T12:04:21.977Z,1096
2017-08-24T12:05:21.653Z,1100
2017-08-24T12:06:21.653Z,1092
2017-08-24T12:07:21.749Z,1088
2017-08-24T12:08:21.651Z,1084
2017-08-24T12:09:21.964Z,1084
2017-08-24T12:10:21.333Z,1084
2017-08-24T12:11:22.285Z,1080
2017-08-24T12:12:22.065Z,1076
2017-08-24T12:13:21.646Z,1072
2017-08-24T12:14:21.954Z,1076
2017-08-24T12:15:22.300Z,1060
2017-08-24T12:16:22.055Z,1060
2017-08-24T12:17:21.958Z,1060
2017-08-24T12:18:21.637Z,1056
2017-08-24T12:19:22.071Z,1052
2017-08-24T12:20:21.949Z,1056
2017-08-24T12:21:21.319Z,1052
2017-08-24T12:22:21.954Z,1048
2017-08-24T12:23:21.943Z,1044
2017-08-24T12:24:21.955Z,1044
2017-08-24T12:25:21.312Z,1036
2017-08-24T12:26:21.938Z,1032
2017-08-24T12:27:21.936Z,1036
2017-08-24T12:28:21.940Z,1032
2017-08-24T12:29:21.935Z,1032
2017-08-24T12:30:21.623Z,1032
2017-08-24T12:31:21.620Z,1028
2017-08-24T12:32:21.932Z,1028
2017-08-24T12:33:21.627Z,1028
2017-08-24T12:34:21.621Z,1024
2017-08-24T12:35:21.625Z,1024
2017-08-24T12:36:21.929Z,1020
2017-08-24T12:37:21.305Z,1020
2017-08-24T12:38:21.930Z,1016
2017-08-24T12:39:21.612Z,960
2017-08-24T12:40:22.235Z,1040
2017-08-24T12:41:22.019Z,1048
2017-08-24T12:42:21.604Z,1048
2017-08-24T12:43:21.604Z,1036
2017-08-24T12:44:21.603Z,1036
2017-08-24T12:45:21.919Z,1040
2017-08-24T12:46:21.909Z,1048
2017-08-24T12:47:21.599Z,1056
2017-08-24T12:48:21.593Z,1052
2017-08-24T12:49:21.908Z,1040
2017-08-24T12:50:21.288Z,1036
2017-08-24T12:51:22.069Z,1032
2017-08-24T12:52:22.228Z,1040
2017-08-24T12:53:21.698Z,1048
2017-08-24T12:54:21.284Z,1040
2017-08-24T12:55:21.598Z,1060
2017-08-24T12:56:21.282Z,1072
2017-08-24T12:57:21.598Z,1076
2017-08-24T12:58:21.281Z,1072
2017-08-24T12:59:21.596Z,1076
2017-08-24T13:00:21.375Z,1052
2017-08-24T13:01:21.911Z,1048
2017-08-24T13:02:21.580Z,1108
2017-08-24T13:03:21.266Z,1080
2017-08-24T13:04:21.893Z,1080
2017-08-24T13:05:21.576Z,1084
2017-08-24T13:06:21.887Z,1040
2017-08-24T13:07:21.569Z,1004
2017-08-24T13:08:21.256Z,1000
2017-08-24T13:09:21.978Z,1036
2017-08-24T13:10:21.876Z,1048
2017-08-24T13:11:22.186Z,1036
2017-08-24T13:12:21.877Z,1052
2017-08-24T13:13:21.245Z,1060
2017-08-24T13:14:21.681Z,1064
2017-08-24T13:15:21.876Z,1044
2017-08-24T13:16:21.561Z,1028
2017-08-24T13:17:21.551Z,1060
2017-08-24T13:18:21.552Z,1016
2017-08-24T13:19:21.237Z,1068
2017-08-24T13:20:22.179Z,1112
2017-08-24T13:21:21.547Z,1108
2017-08-24T13:22:21.859Z,1116
2017-08-24T13:23:21.544Z,1100
2017-08-24T13:24:21.543Z,1080
2017-08-24T13:25:21.541Z,1060
2017-08-24T13:26:21.851Z,1048
2017-08-24T13:27:21.856Z,1044
2017-08-24T13:28:21.224Z,1032
2017-08-24T13:29:21.224Z,1028
2017-08-24T13:30:21.220Z,1016
2017-08-24T13:31:21.845Z,1008
2017-08-24T13:32:21.222Z,1024
2017-08-24T13:33:21.532Z,1016
2017-08-24T13:34:21.847Z,1012
2017-08-24T13:35:21.532Z,1000
2017-08-24T13:36:21.842Z,992
2017-08-24T13:37:21.524Z,992
2017-08-24T13:38:21.526Z,988
2017-08-24T13:39:21.521Z,988
2017-08-24T13:40:21.521Z,984
2017-08-24T13:41:21.518Z,980
2017-08-24T13:42:21.206Z,976
2017-08-24T13:43:21.831Z,976
2017-08-24T13:44:21.305Z,968